Aeroporto :
LOGIN :

Iscrizione | Disclaimer

   EN    FR    IT 

 










Sommario :    VFR   VFR Marginale   IFR   IFR Intensivo   IFR Molto Intensivo
Visibilità : 
Base nubi : 
>= 8 km
>= 3000ft
5 / 8 km
1000 / 3000 ft
1500m / 5 km
500 / 1000 ft
800 / 1500m
200 / 500 ft
< 800m
< 200 ft
Simboli :   Temporali  Nebbia  Neve Forte  Precipitazioni Forti  Vento > 20 kt
SIGMETs :   Varie  Temporali  Ghiacco  Turbolenza  Onda orograficha  Ceneri Vulcaniche






- Altitudine del aeroporto : 39 ft


ETNH - Hohn AB

ULTIMO METAR :
  • 121020Z 19010KT 9000 FEW010 SCT018 BKN050 06/04 Q0999 BLU WHT TEMPO GRN

METARs OBSOLETI :
  • 120948Z 21011G23KT 8000 -RA SCT010 BKN018 05/04 Q0999 WHT WHT TEMPO GRN
  • 120920Z 19010KT 4000 -RA BR SCT010 BKN016 06/04 Q0999 GRN WHT TEMPO GRN
  • 120820Z 18010KT 4000 -RA BR SCT010 BKN020 05/04 Q0999 GRN WHT TEMPO GRN

TAF TAF ETNH
Valido dal 12 a 06 ore il 12 a 18 ore UTC


120535Z 1206/1218 17010KT 9999 NSW SCT010 BKN020
TEMPO 1206/1212 19012KT 4000 SHRA SCT005 BKN010CB
BECMG 1211/1213 17015G25KT 9999 NSW BKN030
TEMPO 1212/1218 19015G28KT 4000 SHRA SCT005 BKN010CB BY ETGL



MetMap, La meteo Aeronautica in un colpo d'occhio ! - Copyright ORBIFLY Dicembre 2007 - Disclaimer

ORBIFLY MET'MAP TEAM :

Programmazione e sviluppo : Alexandra Zaïnal
Concezione e sviluppo : Baudouin d'Aumeries
Co-Programmazione e sviluppo : Marc-Olivier Méhu
Supporto tecnico e logistico : Manuel Goepfert
Aiuto per la traduzione : Arnaldo La Scala

Contatto : metmap@orbifly.com




FONTI E CREDITI :

   NOAA